createdAt,value
2019-03-27T00:01:49.420Z,8.60
2019-03-27T00:04:22.727Z,8.60
2019-03-27T00:06:54.943Z,8.40
2019-03-27T00:09:26.131Z,8.10
2019-03-27T00:11:56.720Z,7.97
2019-03-27T00:14:27.435Z,7.90
2019-03-27T00:16:57.399Z,7.87
2019-03-27T00:19:27.476Z,8.80
2019-03-27T00:21:57.648Z,8.00
2019-03-27T00:24:27.923Z,8.67
2019-03-27T00:26:57.915Z,8.20
2019-03-27T00:29:30.720Z,7.20
2019-03-27T00:32:00.697Z,7.30
2019-03-27T00:34:30.767Z,7.53
2019-03-27T00:37:01.914Z,7.53
2019-03-27T00:39:32.039Z,7.43
2019-03-27T00:42:02.001Z,7.13
2019-03-27T00:44:31.822Z,7.33
2019-03-27T00:47:01.941Z,7.73
2019-03-27T00:49:32.083Z,7.73
2019-03-27T00:52:02.015Z,7.13
2019-03-27T00:54:31.839Z,7.80
2019-03-27T00:57:01.713Z,7.47
2019-03-27T00:59:31.795Z,7.00
2019-03-27T01:02:01.951Z,7.47
2019-03-27T01:04:31.885Z,6.90
2019-03-27T01:07:01.835Z,8.33
2019-03-27T01:09:31.746Z,6.67
2019-03-27T01:12:01.755Z,7.33
2019-03-27T01:14:31.635Z,6.60
2019-03-27T01:17:01.471Z,6.97
2019-03-27T01:19:31.489Z,7.20
2019-03-27T01:22:01.496Z,7.67
2019-03-27T01:24:31.808Z,7.50
2019-03-27T01:27:01.722Z,7.33
2019-03-27T01:29:31.701Z,7.83
2019-03-27T01:32:02.088Z,7.10
2019-03-27T01:34:33.634Z,6.90
2019-03-27T01:37:03.663Z,7.70
2019-03-27T01:39:33.561Z,7.23
2019-03-27T01:42:03.396Z,7.80
2019-03-27T01:44:33.495Z,7.27
2019-03-27T01:47:03.668Z,7.03
2019-03-27T01:49:35.276Z,6.60
2019-03-27T01:52:08.155Z,6.83
2019-03-27T01:54:38.289Z,7.97
2019-03-27T01:57:08.113Z,7.13
2019-03-27T01:59:37.965Z,6.90
2019-03-27T02:02:07.820Z,8.10
2019-03-27T02:04:37.700Z,6.90
2019-03-27T02:07:07.807Z,7.47
2019-03-27T02:09:37.668Z,7.33
2019-03-27T02:12:07.545Z,7.03
2019-03-27T02:14:37.702Z,7.47
2019-03-27T02:17:08.546Z,6.77
2019-03-27T02:19:38.350Z,7.67
2019-03-27T02:22:11.616Z,6.60
2019-03-27T02:24:41.620Z,7.57
2019-03-27T02:27:11.812Z,7.40
2019-03-27T02:29:41.673Z,8.10
2019-03-27T02:32:11.628Z,7.07
2019-03-27T02:34:41.789Z,6.67
2019-03-27T02:37:12.596Z,6.97
2019-03-27T02:39:42.397Z,7.13
2019-03-27T02:42:12.232Z,7.60
2019-03-27T02:44:42.091Z,7.07
2019-03-27T02:47:12.276Z,7.40
2019-03-27T02:49:42.379Z,7.40
2019-03-27T02:52:12.308Z,7.17
2019-03-27T02:54:42.829Z,7.97
2019-03-27T02:57:12.668Z,7.40
2019-03-27T02:59:42.607Z,7.57
2019-03-27T03:02:12.426Z,7.30
2019-03-27T03:04:42.284Z,7.30
2019-03-27T03:07:12.250Z,6.97
2019-03-27T03:09:42.093Z,7.67
2019-03-27T03:12:12.305Z,7.67
2019-03-27T03:14:42.174Z,7.07
2019-03-27T03:17:12.074Z,7.47
2019-03-27T03:19:42.823Z,7.53
2019-03-27T03:22:13.547Z,6.87
2019-03-27T03:24:43.375Z,7.00
2019-03-27T03:27:13.331Z,6.90
2019-03-27T03:29:44.133Z,7.53
2019-03-27T03:32:13.981Z,6.67
2019-03-27T03:34:43.855Z,7.17
2019-03-27T03:37:13.727Z,7.67
2019-03-27T03:39:43.831Z,7.03
2019-03-27T03:42:13.739Z,7.73
2019-03-27T03:44:43.733Z,7.07
2019-03-27T03:47:13.556Z,7.63
2019-03-27T03:49:43.404Z,7.17
2019-03-27T03:52:13.512Z,6.90
2019-03-27T03:54:43.388Z,7.00
2019-03-27T03:57:14.136Z,7.20
2019-03-27T03:59:44.378Z,8.13
2019-03-27T04:02:15.972Z,7.40
2019-03-27T04:04:48.352Z,7.10
2019-03-27T04:07:18.693Z,7.50
2019-03-27T04:09:48.800Z,6.90
2019-03-27T04:12:18.661Z,7.73
2019-03-27T04:14:48.565Z,7.43
2019-03-27T04:17:18.376Z,7.60
2019-03-27T04:19:51.365Z,9.00
2019-03-27T04:22:21.239Z,7.93
2019-03-27T04:24:51.147Z,8.37
2019-03-27T04:27:20.984Z,8.17
2019-03-27T04:29:50.920Z,8.10
2019-03-27T04:32:20.895Z,8.87
2019-03-27T04:34:50.713Z,8.67
2019-03-27T04:37:20.669Z,8.83
2019-03-27T04:39:50.755Z,8.93
2019-03-27T04:42:20.583Z,9.00
2019-03-27T04:44:51.480Z,9.90
2019-03-27T04:47:31.932Z,9.53
2019-03-27T04:49:52.978Z,9.23
2019-03-27T04:52:22.842Z,9.83
2019-03-27T04:54:52.708Z,9.37
2019-03-27T04:57:22.573Z,9.50
2019-03-27T04:59:52.467Z,10.03
2019-03-27T05:02:23.573Z,10.17
2019-03-27T05:04:53.952Z,10.63
2019-03-27T05:07:23.788Z,10.40
2019-03-27T05:09:53.879Z,9.70
2019-03-27T05:12:24.619Z,10.47
2019-03-27T05:14:54.427Z,10.07
2019-03-27T05:17:26.118Z,14.43
2019-03-27T05:19:56.004Z,11.60
2019-03-27T05:22:25.810Z,11.07
2019-03-27T05:24:55.655Z,11.40
2019-03-27T05:27:25.471Z,10.67
2019-03-27T05:29:55.361Z,10.50
2019-03-27T05:32:25.158Z,10.40
2019-03-27T05:34:58.279Z,10.50
2019-03-27T05:37:28.414Z,11.10
2019-03-27T05:39:58.276Z,10.80
2019-03-27T05:42:28.856Z,11.40
2019-03-27T05:44:59.259Z,10.37
2019-03-27T05:47:29.097Z,10.20
2019-03-27T05:49:59.012Z,10.87
2019-03-27T05:52:29.159Z,10.60
2019-03-27T05:54:59.683Z,11.47
2019-03-27T05:57:29.808Z,11.20
2019-03-27T05:59:59.946Z,10.40
2019-03-27T06:02:29.760Z,10.93
2019-03-27T06:04:59.663Z,11.13
2019-03-27T06:07:29.511Z,10.80
2019-03-27T06:09:59.572Z,12.00
2019-03-27T06:12:29.482Z,10.97
2019-03-27T06:15:00.224Z,11.83
2019-03-27T06:17:30.893Z,11.60
2019-03-27T06:20:00.861Z,13.47
2019-03-27T06:22:30.791Z,13.10
2019-03-27T06:25:00.604Z,13.60
2019-03-27T06:27:30.472Z,13.77
2019-03-27T06:30:00.402Z,13.13
2019-03-27T06:32:30.291Z,15.60
2019-03-27T06:35:00.435Z,15.43
2019-03-27T06:37:30.343Z,14.27
2019-03-27T06:40:00.332Z,14.70
2019-03-27T06:42:30.423Z,15.17
2019-03-27T06:45:00.394Z,14.80
2019-03-27T06:47:30.549Z,14.70
2019-03-27T06:50:00.471Z,13.70
2019-03-27T06:52:30.444Z,13.83
2019-03-27T06:55:00.470Z,14.50
2019-03-27T06:57:30.528Z,13.17
2019-03-27T07:00:00.759Z,13.60
2019-03-27T07:02:30.672Z,16.60
2019-03-27T07:05:00.526Z,16.77
2019-03-27T07:07:30.367Z,16.67
2019-03-27T07:10:00.452Z,18.03
2019-03-27T07:12:30.316Z,18.40
2019-03-27T07:15:00.508Z,17.37
2019-03-27T07:17:30.627Z,16.53
2019-03-27T07:20:01.601Z,17.63
2019-03-27T07:22:31.696Z,17.57
2019-03-27T07:25:02.698Z,17.10
2019-03-27T07:27:32.569Z,17.83
2019-03-27T07:30:02.396Z,18.43
2019-03-27T07:32:32.534Z,20.07
2019-03-27T07:35:02.728Z,18.10
2019-03-27T07:37:32.618Z,18.63
2019-03-27T07:40:02.451Z,17.97
2019-03-27T07:42:32.687Z,19.53
2019-03-27T07:45:02.538Z,20.53
2019-03-27T07:47:32.692Z,20.50
2019-03-27T07:50:02.864Z,21.47
2019-03-27T07:52:32.723Z,21.40
2019-03-27T07:55:02.562Z,20.60
2019-03-27T07:57:32.438Z,21.03
2019-03-27T08:00:02.544Z,23.27
2019-03-27T08:02:32.375Z,25.70
2019-03-27T08:05:02.535Z,23.90
2019-03-27T08:07:32.344Z,24.83
2019-03-27T08:10:02.140Z,24.20
2019-03-27T08:12:32.087Z,25.27
2019-03-27T08:15:01.947Z,25.43
2019-03-27T08:17:32.081Z,26.30
2019-03-27T08:20:02.822Z,27.17
2019-03-27T08:22:32.947Z,25.80
2019-03-27T08:25:02.764Z,26.90
2019-03-27T08:27:32.598Z,27.63
2019-03-27T08:30:02.458Z,29.20
2019-03-27T08:32:32.531Z,29.77
2019-03-27T08:35:02.483Z,29.67
2019-03-27T08:37:32.592Z,31.20
2019-03-27T08:40:02.419Z,31.97
2019-03-27T08:42:32.586Z,30.63
2019-03-27T08:45:02.417Z,31.60
2019-03-27T08:47:32.883Z,31.70
2019-03-27T08:50:03.360Z,29.90
2019-03-27T08:52:33.514Z,30.13
2019-03-27T08:55:04.499Z,31.33
2019-03-27T08:57:34.364Z,32.83
2019-03-27T09:00:04.797Z,32.13
2019-03-27T09:02:34.695Z,33.10
2019-03-27T09:05:04.851Z,34.10
2019-03-27T09:07:34.969Z,35.10
2019-03-27T09:10:05.323Z,35.27
2019-03-27T09:12:35.191Z,37.37
2019-03-27T09:15:05.520Z,35.13
2019-03-27T09:17:35.605Z,36.47
2019-03-27T09:20:06.412Z,37.17
2019-03-27T09:22:36.849Z,36.80
2019-03-27T09:25:07.571Z,35.80
2019-03-27T09:27:37.553Z,35.63
2019-03-27T09:30:09.831Z,35.20
2019-03-27T09:32:39.706Z,36.50
2019-03-27T09:35:10.172Z,34.47
2019-03-27T09:37:40.510Z,34.90
2019-03-27T09:40:10.564Z,33.93
2019-03-27T09:42:40.725Z,31.80
2019-03-27T09:45:11.302Z,31.47
2019-03-27T09:47:41.523Z,31.27
2019-03-27T09:50:12.095Z,30.60
2019-03-27T09:52:42.228Z,30.83
2019-03-27T09:55:12.120Z,34.17
2019-03-27T09:57:42.254Z,32.10
2019-03-27T10:00:13.032Z,33.47
2019-03-27T10:02:42.875Z,32.50
2019-03-27T10:05:13.061Z,32.97
2019-03-27T10:07:43.360Z,31.67
2019-03-27T10:10:13.903Z,31.90
2019-03-27T10:12:43.876Z,32.67
2019-03-27T10:15:14.174Z,27.10
2019-03-27T10:17:44.001Z,24.53
2019-03-27T10:20:14.764Z,28.90
2019-03-27T10:22:44.648Z,28.27
2019-03-27T10:25:15.004Z,30.73
2019-03-27T10:27:45.875Z,31.53
2019-03-27T10:30:15.934Z,30.00
2019-03-27T10:32:46.051Z,28.77
2019-03-27T10:35:16.298Z,26.57
2019-03-27T10:37:46.590Z,18.23
2019-03-27T10:40:16.495Z,18.27
2019-03-27T10:42:46.334Z,18.80
2019-03-27T10:45:16.455Z,19.10
2019-03-27T10:47:46.369Z,19.80
2019-03-27T10:50:18.076Z,18.13
2019-03-27T10:52:48.416Z,19.30
2019-03-27T10:55:18.475Z,18.13
2019-03-27T10:57:48.443Z,16.40
2019-03-27T11:00:18.463Z,16.20
2019-03-27T11:02:51.698Z,16.10
2019-03-27T11:05:21.617Z,17.63
2019-03-27T11:07:51.479Z,18.80
2019-03-27T11:10:21.917Z,17.97
2019-03-27T11:12:51.855Z,18.83
2019-03-27T11:15:22.140Z,18.97
2019-03-27T11:17:51.961Z,23.40
2019-03-27T11:20:30.978Z,23.70
2019-03-27T11:22:53.635Z,24.70
2019-03-27T11:25:23.596Z,21.47
2019-03-27T11:27:53.468Z,21.03
2019-03-27T11:30:35.960Z,19.07
2019-03-27T11:33:06.024Z,19.87
2019-03-27T11:35:35.844Z,19.30
2019-03-27T11:38:05.712Z,18.60
2019-03-27T11:40:36.261Z,21.83
2019-03-27T11:43:07.401Z,23.23
2019-03-27T11:45:37.671Z,22.30
2019-03-27T11:48:08.571Z,20.87
2019-03-27T11:50:44.851Z,22.20
2019-03-27T11:53:10.389Z,20.53
2019-03-27T11:55:40.542Z,18.87
2019-03-27T11:58:10.684Z,18.60
2019-03-27T12:00:53.920Z,16.30
2019-03-27T12:03:12.668Z,15.53
2019-03-27T12:05:45.534Z,16.30
2019-03-27T12:08:14.156Z,16.40
2019-03-27T12:10:44.055Z,19.27
2019-03-27T12:13:14.341Z,14.50
2019-03-27T12:15:44.480Z,15.53
2019-03-27T12:18:16.136Z,15.00
2019-03-27T12:20:58.317Z,16.03
2019-03-27T12:23:17.823Z,15.67
2019-03-27T12:25:48.029Z,17.07
2019-03-27T12:28:17.915Z,17.23
2019-03-27T12:30:47.765Z,16.67
2019-03-27T12:33:17.879Z,14.37
2019-03-27T12:35:51.582Z,14.07
2019-03-27T12:38:21.542Z,13.13
2019-03-27T12:40:51.640Z,12.87
2019-03-27T12:43:21.540Z,12.37
2019-03-27T12:45:51.737Z,12.37
2019-03-27T12:48:21.841Z,12.10
2019-03-27T12:50:51.664Z,12.43
2019-03-27T12:53:21.544Z,12.30
2019-03-27T12:55:58.088Z,11.80
2019-03-27T12:58:37.187Z,12.07
2019-03-27T13:01:18.456Z,12.23
2019-03-27T13:03:53.227Z,12.60
2019-03-27T13:06:27.913Z,12.53
2019-03-27T13:08:59.876Z,10.40
2019-03-27T13:11:32.659Z,10.17
2019-03-27T13:14:18.378Z,10.23
2019-03-27T13:21:26.255Z,9.90
2019-03-27T13:23:52.201Z,9.63
2019-03-27T13:26:22.527Z,10.13
2019-03-27T13:32:35.312Z,8.13
2019-03-27T13:35:05.694Z,8.20
2019-03-27T13:37:35.807Z,8.70
2019-03-27T13:40:06.664Z,9.00
2019-03-27T13:42:37.931Z,7.70
2019-03-27T13:45:08.536Z,8.10
2019-03-27T13:47:38.375Z,8.50
2019-03-27T13:50:13.163Z,8.33
2019-03-27T13:52:43.734Z,7.50
2019-03-27T13:55:14.281Z,7.97
2019-03-27T13:57:44.195Z,8.27
2019-03-27T14:00:16.136Z,8.90
2019-03-27T14:02:46.328Z,8.67
2019-03-27T14:05:16.336Z,8.50
2019-03-27T14:07:48.693Z,8.47
2019-03-27T14:10:18.628Z,9.00
2019-03-27T14:12:48.539Z,9.33
2019-03-27T14:15:20.006Z,8.50
2019-03-27T14:17:50.399Z,8.37
2019-03-27T14:20:20.801Z,8.67
2019-03-27T14:22:50.704Z,7.90
2019-03-27T14:25:22.253Z,7.90
2019-03-27T14:27:52.486Z,8.33
2019-03-27T14:30:49.147Z,8.53
2019-03-27T14:33:19.662Z,9.03
2019-03-27T14:35:49.797Z,9.23
2019-03-27T14:38:19.604Z,9.03
2019-03-27T14:40:49.482Z,9.90
2019-03-27T14:43:19.573Z,9.70
2019-03-27T14:45:49.598Z,10.10
2019-03-27T14:48:19.436Z,9.13
2019-03-27T14:50:49.302Z,8.70
2019-03-27T14:53:19.120Z,8.33
2019-03-27T14:55:49.191Z,9.70
2019-03-27T14:58:19.032Z,9.33
2019-03-27T15:00:48.833Z,9.80
2019-03-27T15:03:18.859Z,8.77
2019-03-27T15:05:49.187Z,8.33
2019-03-27T15:08:19.002Z,8.60
2019-03-27T15:10:48.860Z,9.17
2019-03-27T15:13:23.920Z,8.93
2019-03-27T15:15:56.681Z,9.03
2019-03-27T15:18:26.815Z,8.73
2019-03-27T15:21:00.255Z,9.40
2019-03-27T15:23:30.139Z,8.70
2019-03-27T15:26:00.030Z,9.77
2019-03-27T15:28:30.043Z,11.00
2019-03-27T15:31:00.013Z,10.83
2019-03-27T15:33:30.398Z,10.47
2019-03-27T15:36:00.413Z,10.47
2019-03-27T15:38:34.883Z,9.80
2019-03-27T15:41:05.416Z,10.60
2019-03-27T15:43:35.933Z,10.57
2019-03-27T15:46:06.008Z,11.30
2019-03-27T15:48:35.922Z,10.43
2019-03-27T15:51:08.614Z,10.53
2019-03-27T15:53:38.739Z,10.50
2019-03-27T15:56:09.058Z,10.60
2019-03-27T15:58:41.127Z,10.43
2019-03-27T16:01:16.239Z,11.60
2019-03-27T16:03:48.262Z,10.97
2019-03-27T16:06:18.406Z,10.20
2019-03-27T16:08:48.395Z,10.40
2019-03-27T16:11:18.407Z,11.10
2019-03-27T16:13:50.108Z,10.00
2019-03-27T16:16:20.760Z,9.53
2019-03-27T16:18:54.087Z,9.47
2019-03-27T16:21:24.014Z,10.37
2019-03-27T16:24:05.918Z,10.63
2019-03-27T16:26:25.659Z,9.70
2019-03-27T16:28:55.792Z,9.73
2019-03-27T16:31:25.981Z,10.73
2019-03-27T16:33:56.589Z,9.90
2019-03-27T16:36:26.892Z,11.43
2019-03-27T16:38:59.188Z,10.30
2019-03-27T16:41:30.456Z,11.27
2019-03-27T16:44:00.552Z,10.73
2019-03-27T16:46:30.746Z,11.00
2019-03-27T16:49:00.975Z,10.30
2019-03-27T16:51:31.626Z,9.47
2019-03-27T16:54:04.570Z,12.43
2019-03-27T16:56:42.544Z,9.87
2019-03-27T16:59:12.762Z,10.00
2019-03-27T17:01:43.893Z,10.10
2019-03-27T17:04:16.726Z,9.93
2019-03-27T17:06:50.918Z,10.93
2019-03-27T17:09:54.212Z,10.90
2019-03-27T17:12:31.349Z,10.33
2019-03-27T17:15:00.365Z,10.83
2019-03-27T17:17:30.460Z,10.70
2019-03-27T17:20:00.271Z,11.20
2019-03-27T17:22:30.458Z,10.80
2019-03-27T17:25:00.347Z,15.70
2019-03-27T17:27:30.517Z,11.93
2019-03-27T17:30:00.465Z,11.27
2019-03-27T17:32:30.684Z,11.47
2019-03-27T17:35:00.515Z,12.10
2019-03-27T17:37:30.724Z,11.60
2019-03-27T17:40:00.912Z,11.13
2019-03-27T17:42:30.718Z,11.77
2019-03-27T17:45:00.610Z,10.50
2019-03-27T17:47:30.452Z,11.83
2019-03-27T17:50:00.515Z,11.83
2019-03-27T17:52:30.790Z,10.37
2019-03-27T17:55:00.924Z,10.03
2019-03-27T17:57:31.111Z,10.50
2019-03-27T18:00:00.982Z,9.77
2019-03-27T18:02:31.205Z,9.93
2019-03-27T18:05:01.468Z,9.80
2019-03-27T18:07:31.369Z,10.53
2019-03-27T18:10:01.224Z,11.30
2019-03-27T18:12:31.444Z,13.47
2019-03-27T18:15:02.881Z,12.87
2019-03-27T18:17:32.731Z,12.10
2019-03-27T18:20:02.571Z,11.37
2019-03-27T18:22:32.480Z,10.27
2019-03-27T18:25:02.304Z,9.13
2019-03-27T18:27:32.711Z,9.47
2019-03-27T18:30:02.648Z,8.83
2019-03-27T18:32:32.522Z,9.60
2019-03-27T18:35:02.358Z,9.37
2019-03-27T18:37:32.426Z,9.00
2019-03-27T18:40:02.583Z,8.40
2019-03-27T18:42:32.440Z,9.00
2019-03-27T18:45:02.296Z,8.80
2019-03-27T18:47:32.186Z,8.93
2019-03-27T18:50:02.273Z,8.67
2019-03-27T18:52:32.668Z,9.27
2019-03-27T18:55:02.631Z,9.13
2019-03-27T18:57:32.531Z,10.33
2019-03-27T19:00:02.442Z,9.27
2019-03-27T19:02:32.299Z,9.17
2019-03-27T19:05:02.391Z,8.87
2019-03-27T19:07:32.386Z,9.03
2019-03-27T19:10:02.473Z,10.77
2019-03-27T19:12:32.413Z,10.00
2019-03-27T19:15:02.496Z,9.57
2019-03-27T19:17:33.263Z,10.10
2019-03-27T19:20:03.186Z,10.00
2019-03-27T19:22:38.294Z,11.60
2019-03-27T19:25:08.689Z,11.30
2019-03-27T19:27:39.468Z,9.77
2019-03-27T19:30:10.404Z,10.47
2019-03-27T19:32:40.858Z,10.30
2019-03-27T19:35:10.926Z,10.10
2019-03-27T19:37:41.188Z,10.57
2019-03-27T19:40:11.211Z,9.83
2019-03-27T19:42:42.093Z,11.47
2019-03-27T19:45:12.555Z,11.60
2019-03-27T19:47:42.508Z,10.10
2019-03-27T19:50:12.818Z,10.63
2019-03-27T19:52:42.921Z,11.33
2019-03-27T19:55:13.465Z,10.43
2019-03-27T19:57:43.638Z,10.07
2019-03-27T20:00:21.007Z,10.10
2019-03-27T20:02:51.263Z,10.13
2019-03-27T20:05:21.067Z,12.77
2019-03-27T20:07:51.627Z,10.80
2019-03-27T20:10:21.500Z,11.33
2019-03-27T20:12:51.382Z,10.63
2019-03-27T20:15:21.228Z,10.47
2019-03-27T20:17:54.091Z,10.60
2019-03-27T20:20:23.941Z,10.90
2019-03-27T20:22:54.114Z,11.17
2019-03-27T20:25:23.954Z,10.57
2019-03-27T20:27:53.885Z,10.87
2019-03-27T20:30:26.779Z,10.70
2019-03-27T20:32:55.865Z,10.90
2019-03-27T20:35:25.693Z,10.97
2019-03-27T20:37:55.852Z,10.50
2019-03-27T20:40:27.648Z,11.73
2019-03-27T20:42:57.215Z,19.70
2019-03-27T20:45:28.088Z,12.23
2019-03-27T20:47:58.306Z,20.00
2019-03-27T20:50:28.428Z,14.53
2019-03-27T20:52:58.636Z,13.13
2019-03-27T20:55:30.650Z,12.57
2019-03-27T20:58:00.326Z,13.00
2019-03-27T21:00:30.492Z,13.17
2019-03-27T21:03:00.322Z,13.83
2019-03-27T21:05:30.208Z,14.97
2019-03-27T21:08:00.346Z,14.10
2019-03-27T21:10:30.308Z,14.77
2019-03-27T21:13:00.208Z,12.83
2019-03-27T21:15:30.355Z,13.13
2019-03-27T21:18:00.150Z,12.73
2019-03-27T21:20:30.066Z,13.10
2019-03-27T21:22:59.902Z,14.13
2019-03-27T21:25:30.057Z,14.53
2019-03-27T21:28:00.161Z,14.43
2019-03-27T21:30:30.136Z,15.07
2019-03-27T21:33:00.053Z,14.73
2019-03-27T21:35:30.030Z,16.30
2019-03-27T21:37:59.950Z,16.47
2019-03-27T21:40:29.808Z,15.80
2019-03-27T21:42:59.729Z,15.73
2019-03-27T21:45:32.109Z,16.00
2019-03-27T21:48:01.540Z,16.30
2019-03-27T21:50:31.441Z,16.37
2019-03-27T21:53:01.448Z,15.53
2019-03-27T21:55:42.117Z,16.17
2019-03-27T21:58:03.828Z,15.97
2019-03-27T22:00:42.517Z,16.03
2019-03-27T22:03:12.701Z,16.17
2019-03-27T22:05:42.908Z,16.10
2019-03-27T22:08:12.923Z,16.83
2019-03-27T22:10:43.623Z,15.50
2019-03-27T22:13:13.444Z,15.47
2019-03-27T22:15:43.293Z,16.63
2019-03-27T22:18:13.166Z,15.27
2019-03-27T22:20:43.310Z,15.57
2019-03-27T22:23:13.463Z,14.53
2019-03-27T22:25:43.299Z,15.00
2019-03-27T22:28:13.416Z,14.47
2019-03-27T22:30:43.376Z,14.03
2019-03-27T22:33:13.249Z,14.90
2019-03-27T22:35:43.374Z,15.17
2019-03-27T22:38:13.331Z,15.00
2019-03-27T22:40:43.294Z,14.73
2019-03-27T22:43:13.305Z,14.63
2019-03-27T22:45:43.460Z,14.60
2019-03-27T22:48:13.738Z,14.63
2019-03-27T22:50:43.659Z,14.97
2019-03-27T22:53:13.653Z,14.17
2019-03-27T22:55:49.860Z,14.70
2019-03-27T22:58:15.357Z,14.03
2019-03-27T23:00:49.537Z,14.73
2019-03-27T23:03:25.046Z,14.97
2019-03-27T23:05:56.589Z,13.20
2019-03-27T23:08:26.624Z,14.33
2019-03-27T23:10:56.760Z,13.57
2019-03-27T23:13:27.146Z,14.00
2019-03-27T23:15:57.383Z,14.23
2019-03-27T23:18:59.514Z,13.13
2019-03-27T23:21:30.665Z,13.33
2019-03-27T23:24:00.715Z,12.33
2019-03-27T23:26:31.979Z,13.10
2019-03-27T23:29:01.836Z,13.57
2019-03-27T23:31:32.738Z,13.63
2019-03-27T23:34:02.967Z,13.50
2019-03-27T23:36:33.134Z,12.57
2019-03-27T23:39:03.048Z,12.77
2019-03-27T23:41:33.388Z,13.87
2019-03-27T23:44:03.503Z,12.97
2019-03-27T23:46:33.456Z,13.37
2019-03-27T23:49:03.347Z,13.60
2019-03-27T23:51:33.584Z,12.97
2019-03-27T23:54:03.481Z,13.33
2019-03-27T23:56:33.356Z,12.50
2019-03-27T23:59:03.564Z,13.53
